Flight Track Log - Related Links

Times and Time Zones

All times are in EDT time to prevent confusion due to time zone crossing. See the N277AG flight status page for this flight to view local times or setup timezone preferences in your user account.

Time Position Orientation Groundspeed Altitude Reporting Facility
EDT Latitude Longitude Course Direction KTS MPH feet Rate Location/Type
Sat 12:02:28 PM 32.5306 -93.7389 145° Southeast 133 153 700  Level Fort Worth Center
Sat 12:02:59 PM 32.5197 -93.7300 145° Southeast 111 128 1,500 1,319 Climbing Fort Worth Center
Sat 12:03:59 PM 32.4914 -93.7494 210° Southwest 118 136 2,700 1,091 Climbing Fort Worth Center
Sat 12:04:16 PM 32.4889 -93.7536 235° Southwest 109 125 2,900 984 Climbing Fort Worth Center
Sat 12:05:00 PM 32.4747 -93.7831 240° Southwest 124 143 3,700 968 Climbing Fort Worth Center
Sat 12:05:18 PM 32.4775 -93.7931 288° West 122 140 3,900 885 Climbing Fort Worth Center
Sat 12:06:01 PM 32.4792 -93.8247 274° West 130 150 4,600 774 Climbing Fort Worth Center
Sat 12:06:20 PM 32.4806 -93.8353 279° West 129 148 4,700 700 Climbing Fort Worth Center
Sat 12:07:01 PM 32.4753 -93.8669 259° West 131 151 5,300 871 Climbing Fort Worth Center
Sat 12:07:22 PM 32.4783 -93.8783 288° West 130 150 5,600 689 Climbing Fort Worth Center
Sat 12:08:02 PM 32.4800 -93.9111 273° West 133 153 6,000 484 Climbing Fort Worth Center
Sat 12:08:24 PM 32.4794 -93.9256 267° West 133 153 6,100 500 Climbing Fort Worth Center
Sat 12:09:02 PM 32.4761 -93.9533 262° West 142 163 6,500 290 Climbing Fort Worth Center
Sat 12:09:26 PM 32.4764 -93.9717 271° West 137 158 6,400  Descending Fort Worth Center
Sat 12:09:57 PM 32.4767 -94.0000 271° West 157 181 6,500  Climbing Fort Worth Center
Sat 12:10:28 PM 32.4786 -94.0281 275° West 162 186 6,400 -98 Descending Fort Worth Center
Sat 12:10:58 PM 32.4797 -94.0542 273° West 168 193 6,400  Level Fort Worth Center
Sat 12:11:29 PM 32.4853 -94.0792 285° West 158 182 6,400  Level Fort Worth Center
Sat 12:11:58 PM 32.4869 -94.1078 274° West 165 190 6,400  Level Fort Worth Center
Sat 12:12:31 PM 32.4914 -94.1386 280° West 162 186 6,400  Level Fort Worth Center
Sat 12:13:05 PM 32.4944 -94.1692 277° West 161 185 6,400  Level Fort Worth Center
Sat 12:13:33 PM 32.4978 -94.1894 281° West 156 180 6,400 67 Level Fort Worth Center
Sat 12:14:35 PM 32.5019 -94.2400 276° West 158 182 6,500 48 Climbing Fort Worth Center
Sat 12:15:37 PM 32.5075 -94.2942 277° West 157 181 6,500 -48 Level Fort Worth Center
Sat 12:16:39 PM 32.5144 -94.3500 278° West 164 189 6,400  Descending Fort Worth Center
Sat 12:17:41 PM 32.5189 -94.4072 275° West 163 188 6,500 48 Climbing Fort Worth Center
Sat 12:18:43 PM 32.5228 -94.4581 275° West 158 182 6,500  Level Fort Worth Center
Sat 12:19:45 PM 32.5308 -94.5181 279° West 168 193 6,500  Level Fort Worth Center
Sat 12:20:47 PM 32.5358 -94.5708 276° West 165 190 6,500  Level Fort Worth Center
Sat 12:21:49 PM 32.5419 -94.6242 278° West 164 189 6,500  Level Fort Worth Center
Sat 12:22:51 PM 32.5458 -94.6731 275° West 160 184 6,500  Level Fort Worth Center
Sat 12:23:53 PM 32.5533 -94.7392 278° West 166 191 6,500  Level Fort Worth Center
Sat 12:24:55 PM 32.5594 -94.7925 278° West 165 190 6,500  Level Fort Worth Center
Sat 12:25:57 PM 32.5658 -94.8461 278° West 164 189 6,500  Level Fort Worth Center
Sat 12:26:59 PM 32.5717 -94.9044 277° West 163 188 6,500  Level Fort Worth Center
Sat 12:28:01 PM 32.5783 -94.9536 279° West 165 190 6,500  Level Fort Worth Center
Sat 12:29:03 PM 32.5825 -95.0075 275° West 165 190 6,500  Level Fort Worth Center
Sat 12:30:05 PM 32.5892 -95.0625 278° West 166 191 6,500  Level Fort Worth Center
Sat 12:31:07 PM 32.5961 -95.1269 277° West 164 189 6,500  Level Fort Worth Center
Sat 12:32:09 PM 32.6025 -95.1822 278° West 167 192 6,500  Level Fort Worth Center
Sat 12:33:11 PM 32.6100 -95.2381 279° West 171 197 6,500 -48 Level Fort Worth Center
Sat 12:34:13 PM 32.6164 -95.2931 278° West 169 194 6,400 -48 Descending Fort Worth Center
Sat 12:35:15 PM 32.6236 -95.3536 278° West 168 193 6,400  Level Fort Worth Center
Sat 12:36:17 PM 32.6300 -95.4081 278° West 167 192 6,400  Level Fort Worth Center
Sat 12:37:19 PM 32.6372 -95.4625 279° West 168 193 6,400  Level Fort Worth Center
Sat 12:38:21 PM 32.6425 -95.5161 277° West 165 190 6,400  Level Fort Worth Center
Sat 12:39:23 PM 32.6508 -95.5756 279° West 166 191 6,400  Level Fort Worth Center
Sat 12:40:25 PM 32.6586 -95.6347 279° West 165 190 6,400  Level Fort Worth Center
Sat 12:41:26 PM 32.6642 -95.6889 277° West 166 191 6,400  Level Fort Worth Center
Sat 12:42:28 PM 32.6719 -95.7461 279° West 164 189 6,400  Level Fort Worth Center
Sat 12:43:30 PM 32.6783 -95.8000 278° West 165 190 6,400  Level Fort Worth Center
Sat 12:44:32 PM 32.6833 -95.8550 276° West 167 192 6,400  Level Fort Worth Center
Sat 12:45:34 PM 32.6903 -95.9125 278° West 164 189 6,400 -145 Level Fort Worth Center
Sat 12:46:36 PM 32.6972 -95.9669 279° West 167 192 6,100 -435 Descending Fort Worth Center
Sat 12:47:38 PM 32.7036 -96.0214 278° West 155 178 5,500 -585 Descending Fort Worth Center
Sat 12:48:39 PM 32.7100 -96.0703 279° West 150 173 4,900 -634 Descending Fort Worth Center
Sat 12:49:41 PM 32.7175 -96.1181 281° West 147 169 4,200 -629 Descending Fort Worth Center
Sat 12:50:43 PM 32.7269 -96.1678 283° West 143 165 3,600 -387 Descending Fort Worth Center
Sat 12:51:45 PM 32.7344 -96.2097 282° West 143 165 3,400 -194 Descending Fort Worth Center
Sat 12:53:00 PM 32.7338 -96.2702 269° West  Level FlightAware Approximate
Sat 01:00:00 PM 32.7333 -96.5167 270° West  Level FlightAware Approximate
Sat 01:01:00 PM 32.7470 -96.5304 270° West  Level Estimated
Sat 01:02:00 PM 32.7470 -96.5304 270° West  Level Estimated
Sat 01:03:00 PM 32.7470 -96.5304 270° West  Level Estimated
Sat 01:04:00 PM 32.7470 -96.5304 270° West  Level Estimated
Sat 01:05:00 PM 32.7470 -96.5304 270° West  Level Estimated
Sat 01:06:00 PM 32.7470 -96.5304 270° West  Level Estimated
Sat 01:07:00 PM 32.7470 -96.5304 270° West  Level Estimated
Sat 01:08:00 PM 32.7470 -96.5304 270° West  Level Estimated
Sat 01:09:00 PM 32.7470 -96.5304 270° West  Level Estimated
Sat 01:10:00 PM 32.7470 -96.5304 270° West  Level Estimated

Login

Don't have an account? Register now (free) for customized features, flight alerts, and more!